Time;durP1;ratioP1;P1;durP2;ratioP2;P2;SDS_P1;SDS_P2;PMS_P1;PMS_P2;Temp;Humidity;BMP_temperature;BMP_pressure;BME280_temperature;BME280_humidity;BME280_pressure;Samples;Min_cycle;Max_cycle;Signal;HPM_P1;HPM_P2
2022/04/16 00:00:52;;;;;;;7.22;5.35;;;11.90;59.80;;;;;;5094212;28;20533;-64
2022/04/16 00:03:21;;;;;;;5.10;3.80;;;11.90;59.70;;;;;;5094736;28;20246;-64
2022/04/16 00:05:51;;;;;;;5.78;4.30;;;11.80;59.20;;;;;;5094136;28;20224;-65
2022/04/16 00:08:19;;;;;;;5.20;4.07;;;11.80;59.30;;;;;;5094874;28;20197;-64
2022/04/16 00:10:46;;;;;;;5.43;4.15;;;11.80;59.40;;;;;;5094179;28;20604;-64
2022/04/16 00:13:16;;;;;;;6.78;4.35;;;11.80;59.50;;;;;;5093854;28;20228;-64
2022/04/16 00:15:44;;;;;;;6.75;4.03;;;11.80;59.10;;;;;;5094235;28;20540;-64
2022/04/16 00:18:11;;;;;;;5.43;4.47;;;11.80;59.00;;;;;;5073968;28;20221;-65
2022/04/16 00:20:40;;;;;;;8.48;4.30;;;11.80;58.90;;;;;;5081413;28;20185;-64
2022/04/16 00:23:08;;;;;;;6.97;4.40;;;11.80;59.10;;;;;;5093780;28;20217;-64
2022/04/16 00:25:35;;;;;;;6.20;4.22;;;11.80;59.10;;;;;;5094410;28;20374;-64
2022/04/16 00:28:02;;;;;;;5.53;4.15;;;11.80;59.00;;;;;;5093874;28;20192;-64
2022/04/16 00:30:37;;;;;;;4.40;3.40;;;11.80;59.20;;;;;;5094274;28;20191;-63
2022/04/16 00:33:05;;;;;;;7.45;3.88;;;11.80;59.30;;;;;;5093906;28;20573;-65
2022/04/16 00:35:32;;;;;;;5.43;4.05;;;11.80;59.30;;;;;;5094020;28;20227;-65
2022/04/16 00:37:59;;;;;;;7.10;4.63;;;11.70;59.50;;;;;;5093659;28;20211;-64
2022/04/16 00:40:26;;;;;;;7.35;4.55;;;11.70;59.50;;;;;;5094209;28;20280;-64
2022/04/16 00:42:54;;;;;;;5.78;4.28;;;11.70;59.50;;;;;;5093458;28;20242;-64
2022/04/16 00:45:21;;;;;;;7.43;4.78;;;11.70;59.60;;;;;;5093744;28;20204;-64
2022/04/16 00:47:50;;;;;;;5.25;4.47;;;11.70;59.70;;;;;;5093524;28;20276;-64
2022/04/16 00:50:17;;;;;;;4.95;4.00;;;11.70;59.80;;;;;;5093934;28;20276;-64
2022/04/16 00:52:44;;;;;;;7.03;4.40;;;11.70;59.80;;;;;;5093524;28;20237;-64
2022/04/16 00:55:12;;;;;;;5.25;3.85;;;11.70;59.90;;;;;;5093277;28;20209;-64
2022/04/16 00:57:40;;;;;;;5.85;4.50;;;11.70;59.90;;;;;;5093979;28;20189;-64
2022/04/16 01:00:09;;;;;;;6.47;4.47;;;11.70;60.10;;;;;;5092847;28;20632;-64
2022/04/16 01:02:37;;;;;;;6.45;3.80;;;11.70;60.00;;;;;;5093706;28;20189;-64
2022/04/16 01:05:07;;;;;;;6.00;4.13;;;11.70;59.80;;;;;;5093364;28;20181;-64
2022/04/16 01:07:35;;;;;;;7.93;4.50;;;11.70;59.60;;;;;;5093126;28;20196;-65
2022/04/16 01:10:01;;;;;;;6.88;4.10;;;11.70;59.40;;;;;;5092885;28;20193;-64
2022/04/16 01:12:28;;;;;;;5.60;3.90;;;11.80;59.90;;;;;;5093504;28;20653;-64
2022/04/16 01:14:57;;;;;;;6.40;4.10;;;11.80;59.90;;;;;;5092824;28;20224;-64
2022/04/16 01:17:23;;;;;;;4.65;3.40;;;11.70;59.60;;;;;;5093199;28;20252;-64
2022/04/16 01:19:50;;;;;;;4.97;3.30;;;11.80;59.40;;;;;;5092783;28;20203;-64
2022/04/16 01:22:20;;;;;;;4.00;3.33;;;11.80;59.10;;;;;;5093437;28;20197;-64
2022/04/16 01:24:48;;;;;;;5.35;3.70;;;11.80;58.80;;;;;;5092680;28;20258;-64
2022/04/16 01:27:17;;;;;;;6.07;3.85;;;11.70;58.90;;;;;;5092804;28;20265;-63
2022/04/16 01:29:44;;;;;;;5.75;4.22;;;11.70;59.00;;;;;;5093026;28;20195;-63
2022/04/16 01:32:11;;;;;;;9.63;4.30;;;11.60;59.30;;;;;;5092870;28;20628;-64
2022/04/16 01:34:40;;;;;;;6.03;3.65;;;11.60;59.30;;;;;;5093250;28;20587;-64
2022/04/16 01:37:09;;;;;;;5.20;3.95;;;11.60;59.60;;;;;;5092591;28;20181;-64
2022/04/16 01:39:36;;;;;;;5.78;3.58;;;11.60;59.90;;;;;;5092967;28;20189;-64
2022/04/16 01:42:05;;;;;;;6.68;3.83;;;11.60;60.00;;;;;;5092611;28;20188;-64
2022/04/16 01:44:33;;;;;;;8.05;4.55;;;11.60;60.00;;;;;;5093018;28;20189;-64
2022/04/16 01:47:00;;;;;;;5.13;3.55;;;11.60;59.80;;;;;;5092354;28;20188;-63
2022/04/16 01:49:27;;;;;;;4.88;3.55;;;11.60;60.00;;;;;;5092790;28;20216;-64
2022/04/16 01:51:57;;;;;;;6.95;3.50;;;11.50;60.50;;;;;;5092263;28;20223;-64
2022/04/16 01:54:24;;;;;;;5.47;3.92;;;11.40;60.90;;;;;;5092308;28;20213;-64
2022/04/16 01:56:51;;;;;;;5.88;4.00;;;11.30;61.30;;;;;;5092536;28;20197;-64
2022/04/16 01:59:19;;;;;;;3.70;3.05;;;11.30;61.60;;;;;;5092228;28;20280;-64
2022/04/16 02:01:47;;;;;;;4.47;3.35;;;11.40;61.60;;;;;;5092464;28;20189;-63
2022/04/16 02:04:14;;;;;;;4.97;3.45;;;11.40;61.40;;;;;;5092308;28;20242;-63
2022/04/16 02:06:41;;;;;;;6.47;4.35;;;11.40;61.30;;;;;;5092389;28;20218;-64
2022/04/16 02:09:08;;;;;;;5.97;3.92;;;11.30;61.40;;;;;;5092276;28;20196;-66
2022/04/16 02:11:35;;;;;;;6.07;3.60;;;11.30;61.50;;;;;;5092531;28;20250;-64
2022/04/16 02:14:03;;;;;;;5.97;4.10;;;11.30;61.10;;;;;;5091813;28;20188;-64
2022/04/16 02:16:31;;;;;;;6.57;4.18;;;11.20;61.30;;;;;;5092466;28;20208;-63
2022/04/16 02:18:58;;;;;;;5.40;4.43;;;11.20;61.60;;;;;;5092205;28;20559;-64
2022/04/16 02:21:25;;;;;;;4.60;3.17;;;11.20;61.30;;;;;;5092230;28;20192;-63
2022/04/16 02:23:53;;;;;;;4.40;2.95;;;11.20;61.30;;;;;;5092198;28;20193;-64
2022/04/16 02:26:21;;;;;;;5.63;2.90;;;11.20;61.80;;;;;;5091526;28;20635;-63
2022/04/16 02:28:48;;;;;;;5.50;3.83;;;11.20;62.10;;;;;;5092282;28;20215;-64
2022/04/16 02:31:15;;;;;;;5.90;3.50;;;11.20;61.90;;;;;;5092119;28;20192;-64
2022/04/16 02:33:44;;;;;;;4.68;3.50;;;11.20;61.70;;;;;;5091759;28;20590;-64
2022/04/16 02:36:11;;;;;;;8.07;3.40;;;11.10;61.90;;;;;;5092726;28;20212;-64
2022/04/16 02:38:40;;;;;;;5.22;3.67;;;11.10;62.10;;;;;;5098552;28;20185;-64
2022/04/16 02:41:07;;;;;;;3.70;2.63;;;11.10;61.60;;;;;;5098984;28;20185;-64
2022/04/16 02:43:34;;;;;;;4.72;3.63;;;11.10;61.60;;;;;;5098234;28;20189;-64
2022/04/16 02:48:47;;;;;;;4.38;3.22;;;11.10;61.70;;;;;;5098434;28;20204;-63
2022/04/16 02:51:14;;;;;;;5.43;3.80;;;11.10;61.30;;;;;;5098811;28;20448;-64
2022/04/16 02:53:41;;;;;;;5.00;3.42;;;11.10;61.10;;;;;;5098338;28;20554;-64
2022/04/16 02:56:08;;;;;;;6.38;3.70;;;11.10;60.70;;;;;;5098932;28;20216;-65
2022/04/16 02:58:35;;;;;;;4.20;3.17;;;11.00;60.60;;;;;;5098635;28;20185;-64
2022/04/16 03:01:10;;;;;;;5.57;3.83;;;11.00;61.10;;;;;;5098546;28;20192;-63
2022/04/16 03:03:37;;;;;;;4.75;3.38;;;11.00;61.10;;;;;;5098415;28;20250;-64
2022/04/16 03:06:06;;;;;;;6.32;3.53;;;10.90;60.60;;;;;;5098667;28;20713;-64
2022/04/16 03:08:33;;;;;;;4.95;3.85;;;10.90;61.20;;;;;;5098129;28;20189;-63
2022/04/16 03:11:01;;;;;;;4.90;3.70;;;10.80;61.50;;;;;;5098639;28;20188;-63
2022/04/16 03:13:28;;;;;;;4.80;3.97;;;10.80;61.20;;;;;;5098123;28;20280;-64
2022/04/16 03:18:55;;;;;;;7.57;3.55;;;10.80;61.90;;;;;;5055746;28;20186;-64
2022/04/16 03:21:24;;;;;;;7.78;3.72;;;10.80;61.90;;;;;;5055876;28;20194;-64
2022/04/16 03:23:51;;;;;;;5.95;3.70;;;10.70;61.80;;;;;;5074046;28;20200;-64
2022/04/16 03:26:18;;;;;;;5.30;3.80;;;10.70;62.20;;;;;;5098238;28;20223;-64
2022/04/16 03:28:45;;;;;;;5.05;3.30;;;10.70;62.60;;;;;;5098102;28;20196;-64
2022/04/16 03:31:13;;;;;;;4.72;3.38;;;10.80;62.50;;;;;;5098559;28;20189;-65
2022/04/16 03:33:40;;;;;;;6.50;3.72;;;10.80;62.40;;;;;;5097893;28;20209;-63
2022/04/16 03:36:07;;;;;;;5.95;3.40;;;10.80;62.30;;;;;;5098557;28;20216;-63
2022/04/16 03:38:36;;;;;;;5.75;3.50;;;10.80;62.10;;;;;;5097735;28;20663;-64
2022/04/16 03:41:03;;;;;;;3.75;2.75;;;10.70;61.80;;;;;;5098350;28;20223;-64
2022/04/16 03:43:30;;;;;;;6.07;3.65;;;10.60;62.00;;;;;;5098253;28;20204;-64
2022/04/16 03:45:58;;;;;;;7.13;4.75;;;10.70;61.60;;;;;;5098364;28;20201;-64
2022/04/16 03:48:25;;;;;;;8.57;3.40;;;10.60;61.20;;;;;;5095257;28;20594;-63
2022/04/16 03:50:52;;;;;;;4.00;3.25;;;10.60;61.10;;;;;;5095160;28;20196;-64
2022/04/16 03:53:19;;;;;;;6.07;4.55;;;10.60;60.70;;;;;;5094359;28;20640;-64
2022/04/16 04:01:16;;;;;;;5.05;3.72;;;10.40;61.30;;;;;;5094894;28;20673;-64
2022/04/16 04:03:45;;;;;;;5.57;3.90;;;10.40;61.40;;;;;;5094436;28;20211;-64
2022/04/16 04:06:12;;;;;;;5.85;4.07;;;10.30;61.30;;;;;;5094855;28;20189;-64
2022/04/16 04:08:39;;;;;;;5.93;4.22;;;10.30;61.20;;;;;;5094463;28;20209;-64
2022/04/16 04:11:07;;;;;;;6.00;4.78;;;10.30;61.20;;;;;;5094679;28;20185;-64
2022/04/16 04:13:34;;;;;;;4.55;3.20;;;10.20;61.30;;;;;;5094570;28;20546;-64
2022/04/16 04:16:02;;;;;;;5.40;4.28;;;10.30;61.70;;;;;;5094579;28;20244;-64
2022/04/16 04:18:29;;;;;;;5.30;4.00;;;10.30;61.70;;;;;;5094232;28;20220;-64
2022/04/16 04:20:56;;;;;;;5.75;4.35;;;10.30;61.60;;;;;;5094319;28;20533;-70
2022/04/16 04:23:24;;;;;;;5.30;4.15;;;10.30;61.90;;;;;;5094783;28;20603;-63
2022/04/16 04:25:51;;;;;;;6.30;4.20;;;10.30;62.00;;;;;;5094628;28;20195;-64
2022/04/16 04:28:19;;;;;;;5.10;3.92;;;10.30;62.20;;;;;;5093745;28;20267;-64
2022/04/16 04:30:46;;;;;;;5.15;3.85;;;10.30;62.20;;;;;;5094550;28;20647;-64
2022/04/16 04:33:13;;;;;;;6.55;3.80;;;10.30;62.90;;;;;;5093915;28;20217;-63
2022/04/16 04:35:41;;;;;;;5.97;4.32;;;10.30;62.90;;;;;;5094452;28;20687;-64
2022/04/16 04:38:08;;;;;;;4.45;3.63;;;10.30;62.80;;;;;;5093817;28;20752;-64
2022/04/16 04:40:34;;;;;;;7.13;4.85;;;10.40;63.00;;;;;;5094454;28;20196;-64
2022/04/16 04:43:01;;;;;;;6.72;5.05;;;10.40;63.30;;;;;;5093725;28;20238;-68
2022/04/16 04:45:30;;;;;;;7.32;4.60;;;10.40;62.90;;;;;;5094153;28;20197;-64
2022/04/16 04:47:57;;;;;;;6.05;4.55;;;10.30;63.20;;;;;;5093470;28;20185;-65
2022/04/16 04:50:24;;;;;;;5.72;4.85;;;10.30;63.80;;;;;;5094052;28;20652;-64
2022/04/16 04:52:51;;;;;;;7.90;4.90;;;10.30;64.30;;;;;;5093575;28;20254;-64
2022/04/16 04:55:19;;;;;;;8.30;5.65;;;10.40;64.20;;;;;;5093960;28;20217;-64
2022/04/16 04:57:46;;;;;;;5.97;4.60;;;10.40;64.30;;;;;;5093565;28;20720;-64
2022/04/16 05:00:14;;;;;;;9.90;5.45;;;10.40;64.30;;;;;;5093451;28;20643;-64
2022/04/16 05:02:44;;;;;;;8.32;5.57;;;10.40;64.10;;;;;;5093165;28;20177;-64
2022/04/16 05:05:12;;;;;;;6.63;4.78;;;10.50;64.20;;;;;;5093439;28;20185;-64
2022/04/16 05:07:39;;;;;;;7.10;5.15;;;10.50;64.10;;;;;;5093850;28;20188;-64
2022/04/16 05:10:07;;;;;;;6.20;4.93;;;10.60;64.60;;;;;;5093510;28;20283;-64
2022/04/16 05:12:34;;;;;;;7.00;4.95;;;10.60;63.30;;;;;;5093609;28;20563;-64
2022/04/16 05:15:01;;;;;;;7.00;4.90;;;10.50;63.50;;;;;;5092993;28;20188;-64
2022/04/16 05:17:28;;;;;;;7.32;5.60;;;10.50;62.80;;;;;;5089447;28;20216;-64
2022/04/16 05:19:57;;;;;;;7.35;5.65;;;10.50;62.90;;;;;;5092057;28;20224;-63
2022/04/16 05:22:24;;;;;;;7.68;5.70;;;10.50;63.40;;;;;;5091465;28;20200;-63
2022/04/16 05:24:51;;;;;;;8.23;5.40;;;10.50;63.70;;;;;;5091228;28;20193;-69
2022/04/16 05:27:18;;;;;;;8.80;6.00;;;10.50;63.70;;;;;;5091261;28;20189;-64
2022/04/16 05:30:05;;;;;;;9.35;5.70;;;10.50;63.50;;;;;;5091539;28;20678;-64
2022/04/16 05:32:35;;;;;;;8.90;6.10;;;10.50;63.50;;;;;;5087896;28;20185;-65
2022/04/16 05:35:05;;;;;;;7.03;4.90;;;10.60;63.40;;;;;;5091507;28;20184;-64
2022/04/16 05:37:35;;;;;;;9.18;6.07;;;10.50;63.30;;;;;;5090823;28;20193;-64
2022/04/16 05:40:02;;;;;;;8.15;6.13;;;10.60;63.70;;;;;;5091637;28;20197;-64
2022/04/16 05:42:29;;;;;;;9.70;6.40;;;10.60;63.20;;;;;;5091356;28;20203;-64
2022/04/16 05:45:01;;;;;;;10.13;7.90;;;10.60;63.20;;;;;;5090855;28;20398;-65
2022/04/16 05:47:28;;;;;;;9.45;6.32;;;10.60;63.20;;;;;;5087394;28;20279;-65
2022/04/16 05:49:55;;;;;;;10.75;6.85;;;10.70;63.00;;;;;;5091168;28;20918;-64
2022/04/16 05:52:24;;;;;;;9.45;6.93;;;10.70;63.90;;;;;;5091283;28;20203;-64
2022/04/16 05:54:52;;;;;;;10.15;7.60;;;10.80;63.90;;;;;;5090336;28;20193;-64
2022/04/16 05:57:20;;;;;;;9.63;7.25;;;10.80;63.20;;;;;;5091069;28;20255;-64
2022/04/16 05:59:49;;;;;;;9.68;6.78;;;10.80;63.20;;;;;;5090827;28;20188;-64
2022/04/16 06:02:16;;;;;;;9.10;6.90;;;10.90;63.40;;;;;;5091041;28;20211;-65
2022/04/16 06:04:43;;;;;;;8.98;6.05;;;10.90;63.10;;;;;;5088333;28;20197;-64
2022/04/16 06:07:12;;;;;;;9.43;6.93;;;10.80;63.50;;;;;;5091446;28;20216;-64
2022/04/16 06:09:41;;;;;;;9.48;6.93;;;10.80;64.00;;;;;;5090714;28;20557;-64
2022/04/16 06:12:09;;;;;;;9.73;7.47;;;10.90;63.70;;;;;;5089774;28;20528;-64
2022/04/16 06:14:36;;;;;;;8.88;6.95;;;10.90;64.00;;;;;;5090975;28;20353;-64
2022/04/16 06:17:03;;;;;;;8.75;5.93;;;10.90;64.20;;;;;;5089495;28;20583;-67
2022/04/16 06:19:30;;;;;;;10.93;7.32;;;10.90;64.50;;;;;;5090257;28;20181;-65
2022/04/16 06:21:57;;;;;;;11.27;8.30;;;10.90;64.10;;;;;;5090702;28;20189;-65
2022/04/16 06:24:25;;;;;;;9.07;6.70;;;11.00;64.10;;;;;;5090730;28;20186;-64
2022/04/16 06:26:53;;;;;;;11.35;7.93;;;10.90;64.10;;;;;;5090766;28;20197;-64
2022/04/16 06:29:20;;;;;;;10.23;7.72;;;10.90;64.30;;;;;;5090034;28;20857;-65
2022/04/16 06:31:47;;;;;;;9.75;7.20;;;11.00;64.50;;;;;;5086505;28;20189;-64
2022/04/16 06:34:14;;;;;;;9.43;7.60;;;11.00;63.90;;;;;;5090786;28;20197;-64
2022/04/16 06:36:41;;;;;;;9.68;6.85;;;11.00;64.00;;;;;;5090273;28;20213;-64
2022/04/16 06:39:08;;;;;;;10.38;7.30;;;11.00;64.30;;;;;;5090697;28;20584;-64
2022/04/16 06:41:35;;;;;;;9.82;7.00;;;11.10;63.90;;;;;;5086413;28;20264;-64
2022/04/16 06:44:04;;;;;;;11.82;7.40;;;11.10;63.20;;;;;;5090861;28;20193;-65
2022/04/16 06:46:31;;;;;;;9.60;6.80;;;11.10;63.70;;;;;;5090379;28;20300;-64
2022/04/16 06:48:59;;;;;;;10.20;6.60;;;11.10;63.50;;;;;;5090211;28;20196;-65
2022/04/16 06:51:26;;;;;;;10.07;7.13;;;11.20;63.20;;;;;;5090160;28;20337;-64
2022/04/16 06:53:53;;;;;;;9.82;7.63;;;11.30;63.30;;;;;;5088316;28;20232;-64
2022/04/16 06:56:20;;;;;;;8.15;6.00;;;11.30;62.50;;;;;;5090211;28;20574;-65
2022/04/16 06:58:47;;;;;;;9.23;7.07;;;11.40;63.00;;;;;;5090177;28;20192;-66
2022/04/16 07:01:16;;;;;;;9.43;6.75;;;11.50;63.20;;;;;;5086635;28;20189;-65
2022/04/16 07:03:43;;;;;;;10.23;6.68;;;11.50;62.00;;;;;;5089482;28;20193;-64
2022/04/16 07:06:10;;;;;;;8.88;6.85;;;11.70;61.90;;;;;;5089755;28;20197;-64
2022/04/16 07:08:38;;;;;;;8.90;6.63;;;11.70;62.20;;;;;;5089794;28;20193;-65
2022/04/16 07:11:05;;;;;;;9.35;6.22;;;11.90;60.50;;;;;;5088261;28;20264;-64
2022/04/16 07:13:32;;;;;;;9.45;6.93;;;11.90;60.40;;;;;;5089880;28;20189;-65
2022/04/16 07:15:59;;;;;;;8.57;5.78;;;11.90;60.40;;;;;;5090182;28;20212;-64
2022/04/16 07:18:27;;;;;;;6.72;5.55;;;12.00;59.40;;;;;;5087178;28;20580;-66
2022/04/16 07:20:54;;;;;;;7.78;6.15;;;12.10;59.90;;;;;;5086584;28;20337;-64
2022/04/16 07:23:21;;;;;;;8.23;6.43;;;12.10;60.30;;;;;;5091614;28;20657;-70
2022/04/16 07:25:49;;;;;;;9.40;6.40;;;12.10;60.60;;;;;;5093513;27;20226;-64
2022/04/16 07:28:21;;;;;;;9.25;6.45;;;12.20;59.90;;;;;;5072504;28;20194;-67
2022/04/16 07:30:49;;;;;;;8.30;6.43;;;12.20;59.10;;;;;;5070134;28;20205;-64
2022/04/16 07:33:16;;;;;;;7.88;6.25;;;12.20;59.30;;;;;;5073556;28;20185;-64
2022/04/16 07:35:45;;;;;;;8.75;6.53;;;12.30;59.80;;;;;;5073333;28;20251;-65
2022/04/16 07:38:12;;;;;;;9.30;6.18;;;12.40;59.40;;;;;;5069176;28;20216;-64
2022/04/16 07:40:39;;;;;;;7.15;5.28;;;12.50;58.70;;;;;;5073385;28;20217;-64
2022/04/16 07:43:06;;;;;;;7.10;5.60;;;12.60;58.10;;;;;;5072966;28;20640;-64
2022/04/16 07:45:34;;;;;;;9.35;6.03;;;12.70;57.70;;;;;;5073413;28;20555;-65
2022/04/16 07:48:01;;;;;;;7.78;6.07;;;12.80;57.40;;;;;;5073423;28;20260;-64
2022/04/16 07:50:30;;;;;;;6.80;5.10;;;12.80;57.00;;;;;;5073606;28;20212;-65
2022/04/16 07:52:59;;;;;;;6.23;4.63;;;12.90;57.00;;;;;;5073301;28;20446;-64
2022/04/16 07:55:28;;;;;;;6.77;4.53;;;13.00;56.90;;;;;;5073200;28;20446;-65
2022/04/16 07:57:55;;;;;;;9.10;5.70;;;13.10;56.80;;;;;;5072677;28;20480;-65
2022/04/16 08:00:22;;;;;;;6.80;5.60;;;13.10;56.20;;;;;;5073148;28;20444;-64
2022/04/16 08:02:49;;;;;;;8.52;5.53;;;13.20;56.60;;;;;;5072609;28;20432;-64
2022/04/16 08:05:16;;;;;;;6.23;4.23;;;13.20;54.80;;;;;;5072907;28;20587;-65
2022/04/16 08:07:44;;;;;;;6.80;4.78;;;13.20;54.50;;;;;;5072388;28;20494;-64
2022/04/16 08:10:12;;;;;;;6.40;5.10;;;13.10;55.10;;;;;;5072562;28;20196;-65
2022/04/16 08:12:40;;;;;;;8.47;5.30;;;13.10;55.40;;;;;;5072770;28;20794;-65
2022/04/16 08:15:09;;;;;;;5.90;4.67;;;13.10;55.50;;;;;;5072077;28;20436;-65
2022/04/16 08:17:37;;;;;;;7.03;4.50;;;13.00;54.50;;;;;;5073716;28;20475;-66
2022/04/16 08:20:06;;;;;;;6.30;4.83;;;13.00;54.20;;;;;;5037852;28;20443;-65
2022/04/16 08:22:34;;;;;;;6.03;4.43;;;13.00;54.40;;;;;;5044383;28;21196;-69
2022/04/16 08:27:53;;;;;;;5.57;3.87;;;12.90;54.40;;;;;;5045990;28;20439;-64
2022/04/16 08:30:19;;;;;;;8.55;4.93;;;12.80;54.70;;;;;;5073839;28;20490;-64
2022/04/16 08:32:46;;;;;;;6.05;4.43;;;12.80;54.70;;;;;;5075055;28;20241;-64
2022/04/16 08:35:15;;;;;;;5.45;3.83;;;12.70;53.60;;;;;;5074052;28;20280;-64
2022/04/16 08:37:42;;;;;;;5.72;3.83;;;12.70;54.60;;;;;;5074801;28;20308;-64
2022/04/16 08:40:12;;;;;;;5.75;4.15;;;12.70;55.00;;;;;;5074950;28;20189;-64
2022/04/16 08:42:39;;;;;;;6.10;4.25;;;12.70;53.90;;;;;;5074935;28;20229;-64
2022/04/16 08:45:10;;;;;;;5.28;3.70;;;12.80;53.90;;;;;;5074897;28;20197;-64
2022/04/16 08:47:38;;;;;;;5.32;3.85;;;12.80;53.70;;;;;;5074692;28;20682;-64
2022/04/16 08:50:08;;;;;;;4.60;2.92;;;12.80;53.80;;;;;;5074899;28;20277;-64
2022/04/16 08:52:37;;;;;;;5.40;3.75;;;12.90;53.30;;;;;;5074900;28;20281;-64
2022/04/16 08:55:06;;;;;;;6.22;3.90;;;13.00;52.70;;;;;;5074409;28;20194;-64
2022/04/16 08:57:33;;;;;;;4.68;3.15;;;13.00;51.10;;;;;;5074535;28;20253;-65
2022/04/16 09:00:00;;;;;;;4.25;3.00;;;13.10;51.30;;;;;;5074236;28;20252;-64
2022/04/16 09:02:29;;;;;;;4.40;2.67;;;13.10;50.10;;;;;;5074455;28;20277;-63
2022/04/16 09:05:04;;;;;;;5.00;3.40;;;13.30;50.80;;;;;;5074391;28;20279;-64
2022/04/16 09:07:31;;;;;;;6.00;3.70;;;13.50;50.60;;;;;;5074245;28;20189;-64
2022/04/16 09:10:07;;;;;;;5.03;3.97;;;13.70;51.00;;;;;;5074228;28;20994;-64
2022/04/16 09:12:37;;;;;;;4.93;3.23;;;13.90;50.60;;;;;;5074485;28;20446;-65
2022/04/16 09:15:08;;;;;;;5.67;4.60;;;14.20;49.90;;;;;;5074241;28;20461;-64
2022/04/16 09:17:37;;;;;;;5.90;3.97;;;14.50;47.50;;;;;;5073966;28;20519;-64
2022/04/16 09:20:05;;;;;;;4.93;3.67;;;14.70;47.00;;;;;;5073802;28;20436;-65
2022/04/16 09:22:33;;;;;;;4.27;3.03;;;14.90;46.30;;;;;;5073845;28;20447;-65
2022/04/16 09:25:00;;;;;;;4.27;3.03;;;14.90;45.20;;;;;;5074252;28;20432;-65
2022/04/16 09:27:28;;;;;;;4.60;2.97;;;14.90;45.80;;;;;;5073836;28;20444;-64
2022/04/16 09:29:55;;;;;;;3.87;2.83;;;14.90;44.30;;;;;;5073888;28;20938;-64
2022/04/16 09:32:24;;;;;;;6.17;3.40;;;14.80;44.70;;;;;;5073936;28;20486;-64
2022/04/16 09:34:52;;;;;;;4.67;3.30;;;14.70;45.50;;;;;;5073737;28;20444;-64
2022/04/16 09:37:20;;;;;;;4.53;3.10;;;14.60;45.90;;;;;;5073296;28;20476;-64
2022/04/16 09:39:47;;;;;;;6.10;3.10;;;14.50;45.70;;;;;;5073457;28;20448;-64
2022/04/16 09:42:24;;;;;;;6.17;4.27;;;14.40;45.70;;;;;;5073621;28;20432;-64
2022/04/16 09:44:51;;;;;;;5.77;3.37;;;14.30;47.20;;;;;;5073561;28;20513;-64
2022/04/16 09:47:23;;;;;;;4.30;3.33;;;14.30;47.10;;;;;;5072765;28;20494;-64
2022/04/16 09:49:53;;;;;;;4.27;3.03;;;14.20;47.50;;;;;;5073445;28;20504;-64
2022/04/16 09:52:23;;;;;;;4.43;3.20;;;14.20;48.00;;;;;;5073460;28;20467;-65
2022/04/16 09:54:51;;;;;;;4.40;3.13;;;14.20;48.00;;;;;;5073608;28;20810;-64
2022/04/16 09:57:23;;;;;;;4.77;3.30;;;14.20;47.60;;;;;;5073329;28;20483;-65
2022/04/16 09:59:53;;;;;;;4.47;3.20;;;14.20;47.00;;;;;;5073511;28;20487;-64
2022/04/16 10:02:20;;;;;;;4.70;3.30;;;14.20;47.10;;;;;;5073328;28;20432;-64
2022/04/16 10:04:48;;;;;;;5.10;3.27;;;14.20;47.10;;;;;;5073458;28;20448;-64
2022/04/16 10:07:16;;;;;;;3.80;2.60;;;14.10;47.00;;;;;;5072743;28;20769;-64
2022/04/16 10:09:45;;;;;;;4.60;3.00;;;14.00;47.50;;;;;;5073071;28;20440;-64
2022/04/16 10:15:04;;;;;;;4.90;3.33;;;13.80;47.10;;;;;;5073413;28;20448;-64
2022/04/16 10:17:35;;;;;;;3.40;2.60;;;13.60;47.10;;;;;;5072681;28;20490;-64
2022/04/16 10:20:09;;;;;;;4.63;3.70;;;13.40;46.90;;;;;;5073303;28;20447;-64
2022/04/16 10:22:38;;;;;;;4.60;3.00;;;13.30;47.20;;;;;;5072803;28;20489;-64
2022/04/16 10:25:07;;;;;;;5.72;4.60;;;13.10;47.50;;;;;;5072792;28;20424;-64
2022/04/16 10:27:41;;;;;;;4.73;3.97;;;13.00;47.90;;;;;;5073090;28;20221;-65
2022/04/16 10:30:11;;;;;;;6.30;4.70;;;12.90;48.90;;;;;;5072770;28;20443;-64
2022/04/16 10:32:41;;;;;;;5.57;4.80;;;12.80;49.70;;;;;;5072890;28;20447;-64
2022/04/16 10:35:13;;;;;;;4.90;3.00;;;12.70;49.50;;;;;;5073234;28;20195;-64
2022/04/16 10:37:42;;;;;;;8.90;3.85;;;12.60;50.60;;;;;;5072946;28;20574;-65
2022/04/16 10:40:18;;;;;;;4.63;3.60;;;12.60;51.50;;;;;;5073018;28;20289;-64
2022/04/16 10:42:48;;;;;;;4.75;3.97;;;12.70;51.80;;;;;;5072719;28;20264;-64
2022/04/16 10:45:15;;;;;;;4.30;3.40;;;12.60;51.20;;;;;;5072382;28;20648;-63
2022/04/16 10:47:43;;;;;;;3.80;3.10;;;12.60;52.20;;;;;;5073067;28;20523;-64
2022/04/16 10:50:15;;;;;;;4.47;3.53;;;12.70;51.80;;;;;;5072644;28;20194;-63
2022/04/16 10:52:54;;;;;;;6.80;3.97;;;12.70;51.50;;;;;;5072846;28;20225;-65
2022/04/16 10:55:25;;;;;;;6.65;4.97;;;12.80;51.40;;;;;;5072828;28;20471;-64
2022/04/16 10:58:00;;;;;;;5.45;3.75;;;12.90;51.40;;;;;;5073921;28;20304;-64
2022/04/16 11:00:42;;;;;;;5.50;3.83;;;12.90;51.00;;;;;;5076603;28;20189;-64
2022/04/16 11:03:10;;;;;;;5.22;3.63;;;12.90;51.40;;;;;;5076850;28;20193;-64
2022/04/16 11:05:37;;;;;;;5.05;3.80;;;13.00;50.80;;;;;;5076988;28;20648;-64
2022/04/16 11:08:08;;;;;;;4.93;3.50;;;13.00;50.60;;;;;;5076777;28;20221;-63
2022/04/16 11:10:35;;;;;;;5.47;4.30;;;13.00;51.60;;;;;;5076679;28;20435;-64
2022/04/16 11:13:02;;;;;;;5.65;4.20;;;13.10;52.00;;;;;;5076322;28;20542;-67
2022/04/16 11:15:29;;;;;;;4.93;3.95;;;13.20;52.00;;;;;;5076478;28;20201;-65
2022/04/16 11:17:56;;;;;;;5.10;4.00;;;13.20;51.40;;;;;;5076424;28;20261;-64
2022/04/16 11:20:25;;;;;;;4.95;3.85;;;13.30;51.10;;;;;;5076311;28;20514;-64
2022/04/16 11:22:52;;;;;;;4.60;3.87;;;13.30;51.00;;;;;;5076222;28;20201;-63
2022/04/16 11:25:23;;;;;;;4.67;3.47;;;13.40;51.10;;;;;;5075708;28;20981;-64
2022/04/16 11:36:08;;;;;;;4.30;3.20;;;13.70;50.00;;;;;;5076090;28;20419;-66
2022/04/16 11:38:37;;;;;;;5.13;4.40;;;13.90;50.30;;;;;;5075177;28;21079;-64
2022/04/16 11:41:07;;;;;;;5.70;4.20;;;14.00;50.50;;;;;;5075739;28;20531;-64
2022/04/16 11:43:36;;;;;;;6.07;4.47;;;14.10;50.00;;;;;;5075723;28;20470;-65
2022/04/16 11:46:12;;;;;;;6.10;4.53;;;14.30;49.80;;;;;;5075780;28;20436;-65
2022/04/16 11:48:44;;;;;;;4.90;4.23;;;14.40;49.50;;;;;;5075857;28;20862;-64
2022/04/16 11:51:12;;;;;;;4.80;3.47;;;14.50;48.80;;;;;;5075751;28;20443;-64
2022/04/16 11:53:44;;;;;;;6.00;4.00;;;14.60;48.00;;;;;;5075672;28;20835;-64
2022/04/16 11:56:12;;;;;;;5.20;3.87;;;14.50;47.10;;;;;;5075714;28;20440;-64
2022/04/16 11:58:39;;;;;;;4.53;3.60;;;14.60;47.80;;;;;;5075387;28;20482;-64
2022/04/16 12:01:06;;;;;;;5.60;3.97;;;14.70;47.90;;;;;;5075535;28;20522;-64
2022/04/16 12:03:38;;;;;;;5.57;4.20;;;14.90;48.40;;;;;;5075493;28;20443;-65
2022/04/16 12:06:10;;;;;;;4.87;3.67;;;15.00;48.30;;;;;;5075096;28;20522;-65
2022/04/16 12:08:37;;;;;;;5.20;4.63;;;15.10;47.30;;;;;;5075146;28;20531;-65
2022/04/16 12:11:04;;;;;;;5.60;3.93;;;15.20;47.20;;;;;;5074595;28;20428;-65
2022/04/16 12:13:37;;;;;;;5.43;4.57;;;15.30;47.30;;;;;;5075133;28;20741;-65
2022/04/16 12:16:05;;;;;;;5.67;3.93;;;15.40;47.30;;;;;;5075585;28;20532;-64
2022/04/16 12:18:36;;;;;;;11.33;4.30;;;15.50;46.50;;;;;;5075117;28;20488;-66
2022/04/16 12:21:07;;;;;;;5.90;5.30;;;15.60;46.60;;;;;;5075347;28;20437;-65
2022/04/16 12:23:34;;;;;;;9.43;5.20;;;15.70;46.60;;;;;;5075311;28;20523;-64
2022/04/16 12:26:05;;;;;;;5.70;4.30;;;15.70;46.40;;;;;;5075202;28;20451;-64
2022/04/16 12:28:38;;;;;;;4.80;4.30;;;15.70;46.40;;;;;;5074774;28;20440;-65
2022/04/16 12:31:05;;;;;;;6.23;4.00;;;15.70;46.10;;;;;;5075510;28;20527;-64
2022/04/16 12:33:32;;;;;;;6.30;4.93;;;15.60;46.60;;;;;;5075160;28;20521;-65
2022/04/16 12:36:00;;;;;;;7.00;5.13;;;15.60;46.30;;;;;;5074897;28;20489;-64
2022/04/16 12:38:27;;;;;;;4.27;3.70;;;15.50;47.10;;;;;;5075011;28;20546;-64
2022/04/16 12:41:06;;;;;;;7.23;5.60;;;15.50;47.10;;;;;;5074904;28;20865;-64
2022/04/16 12:43:33;;;;;;;5.60;4.70;;;15.50;47.00;;;;;;5074761;28;20985;-69
2022/04/16 12:46:01;;;;;;;5.53;4.80;;;15.30;46.70;;;;;;5074764;28;20854;-68
2022/04/16 12:48:28;;;;;;;6.33;4.60;;;15.30;47.50;;;;;;5074143;28;20480;-64
2022/04/16 12:50:55;;;;;;;5.20;4.30;;;15.20;47.70;;;;;;5074624;28;20539;-64
2022/04/16 12:53:22;;;;;;;5.73;4.17;;;15.10;47.80;;;;;;5074531;28;20459;-64
2022/04/16 12:55:49;;;;;;;4.60;3.97;;;15.00;48.10;;;;;;5073838;28;20471;-64
2022/04/16 12:58:16;;;;;;;5.50;3.90;;;14.90;48.20;;;;;;5074390;28;21064;-64
2022/04/16 13:00:45;;;;;;;5.47;4.43;;;14.80;49.00;;;;;;5074421;28;20930;-64
2022/04/16 13:03:14;;;;;;;6.63;4.07;;;14.70;48.50;;;;;;5074310;28;20472;-64
2022/04/16 13:05:41;;;;;;;4.70;4.20;;;14.70;48.80;;;;;;5074292;28;20451;-64
2022/04/16 13:08:08;;;;;;;5.43;4.33;;;14.60;48.60;;;;;;5074345;28;20539;-64
2022/04/16 13:10:35;;;;;;;6.20;4.40;;;14.60;48.90;;;;;;5074441;28;20439;-64
2022/04/16 13:13:04;;;;;;;7.37;3.73;;;14.60;49.30;;;;;;5074443;28;20469;-64
2022/04/16 13:15:31;;;;;;;7.77;4.20;;;14.50;48.80;;;;;;5074165;28;20440;-64